Portada
METAR-TAF:

METAR-TAF

Aeropuertos :

Coles County Memorial Airport

Mattoon / Charleston, Illinois, Estados Unidos

latitud: 39-28-41N, longitud: 088-16-45W, altitud: 220 m

Observación

El informe se hizo hace 1 hora y 3 minutos, a las 00:53 UTC
Viento 14 kt del noroeste
Temperatura -1°C
Humedad 80%
Presión 1020 hPa
Visibilidad: 16.1 km
Nubes dispersas a una altura de 1800 ft
Nubes dispersas a una altura de 2300 ft
Cielo cubierto a una altura de 3400 ft

METAR: KMTO 290053Z AUTO 32014KT 10SM SCT018 SCT023 OVC034 M01/M04 A3012 RMK AO2 SLP208 T10111044

Hora: 19:56 (01:56 UTC)


TAF: falta

Observaciones y pronósticos meteorológicos de más de 4000 aeropuertos (mensajes METAR y TAF).

Los puntos amarillos y rojos representan las estaciones disponibles.

Ponga el ratón en el punto deseado para ver el nombre de la estación.

Haga clic para ver las observaciones y los pronósticos meteorológicos.

Para cambiar el mapa : haga clic en los botones verdes con una cruz de color negro para hacer un zoom, en el botón verde con un guión para alejar o en las flechas verdes para mapas adyacentes.


METAR-TAF: